Current | Forecast
Updated: 6:09 AM JST on December 13, 2017
Observed at Gifu AB, Japan
Temperature 36°F
Humidity 93%
Dew Point 34°F
Wind NNE at 2 mph
Pressure 30.06 in (Steady)
Conditions Light Snow Showers
Visibility 6.2 miles
UV 0 out of 16
Clouds (FEW) : 2000 ft
Mostly Cloudy (BKN) : 3500 ft
Mostly Cloudy (BKN) : 5000 ft
Yesterday's Maximum 41°F
Yesterday's Minimum 34°F approx.
Yesterday's Heating Degree Days 28 approx.
Sunrise6:55 AM JST
Sunset4:42 PM JST
Moon Rise1:55 AM JST
Moon Set1:51 PM JST
Moon PhaseMoon Phase
Waning Crescent
Raw METARSPECI RJNG 122109Z 03002KT 9999 -SHSNRA FEW020 BKN035 BKN050 02/01 Q1018 RMK 1CU020 5CU035 7SC050 A3008


Monday
. High: 71° F.
Tuesday
. High: 62° F.
Wednesday
. High: 64° F.
Thursday
. High: 69° F.
Friday
. High: 73° F.
Saturday
. High: 66° F.
Sunday
. High: 69° F.
Monday
. High: 71° F.

Units: English | Metric

Find the Weather for any City, State or Zipcode, or Country:

U.S. State List | Severe Weather | Tropical Storms | Ski Conditions
United States | Canada | Central America | South America | Asia | Europe | Australia | Africa | Islands

Weather Underground

© Copyright 2017
The Weather Company, LLC